La Jose, PA (15753)

3:41 AM EDT on July 26, 2016 (GMT -0400)
Twinoaks | | Change Station

Elev 1493 ft 40.99 °N, 78.53 °W | Updated 10 minutes ago

Fog
Fog
66.6 °F
Feels Like 66.6 °F
N
0.0
Wind Variable Wind from SSW

Today
High -- | Low -- °F
--% Chance of Precip.
Yesterday
High -- | Low -- °F
Precip. -- in
Pressure 29.95 in
Visibility 0.2 miles
Clouds
Dew Point 64 °F
Humidity 92%
Rainfall 0.00 in
Snow Depth Not available.
6:05 AM 8:35 PM
Waning Gibbous, 57% visible
METAR KFIG 260654Z AUTO 23005KT 1/4SM FG VV002 21/20 A2999 RMK AO2 SLP141 T02110200
Pressure 29.95 in
Visibility 0.2 miles
Clouds
Dew Point 64 °F
Humidity 92%
Rainfall 0.00 in
Snow Depth Not available.
6:05 AM 8:35 PM
Waning Gibbous, 57% visible
METAR KFIG 260654Z AUTO 23005KT 1/4SM FG VV002 21/20 A2999 RMK AO2 SLP141 T02110200

10-Day Weather Forecast

Almanac

Astronomy

Jul. 26, 2016 Rise Set
Actual Time
Civil Twilight
Nautical Twilight
Astronomical Twilight
Moon
Length of Visible Light
Length of Day
Tomorrow will be .
, % of the Moon is Illuminated

Today's Extremes

State Highs State Lows

Community

WunderPhotos

Upload Photos

1,927,551 photos uploaded!

WunderBlog® & News

Nearby

Air Quality

  Air Quality AQ Index Pollutant
Not available.

Snow Depth

Station Depth Elevation

Earthquake Activity

City Distance Mag. Time & Date
Minimum magnitude displayed is 2.5.

Coastal Water Temperatures

Place Temperature

Stations

Nearby Weather Stations

Station Location Temp. Windchill Dew Point Humidity Wind Precip. Elev Updated Type
                   

Watches & Warnings

There are currently no watches in effect.